Time;durP1;ratioP1;P1;durP2;ratioP2;P2;SDS_P1;SDS_P2;PMS_P1;PMS_P2;Temp;Humidity;BMP_temperature;BMP_pressure;BME280_temperature;BME280_humidity;BME280_pressure;Samples;Min_cycle;Max_cycle;Signal;HPM_P1;HPM_P2
2023/05/10 00:00:35;;;;;;;8.20;3.90;;;;;;;21.35;22.03;100970.24;108311;1254;72284;-64
2023/05/10 00:03:04;;;;;;;13.30;4.40;;;;;;;20.98;22.38;100970.71;108122;1252;60364;-66
2023/05/10 00:05:31;;;;;;;6.80;3.40;;;;;;;21.18;22.24;100972.79;108370;1253;60398;-68
2023/05/10 00:07:59;;;;;;;11.90;4.20;;;;;;;21.36;21.97;100971.57;108338;1253;75055;-64
2023/05/10 00:10:26;;;;;;;9.60;4.10;;;;;;;21.42;21.84;100969.73;108337;1253;71527;-65
2023/05/10 00:12:52;;;;;;;7.30;3.90;;;;;;;21.69;21.66;100965.71;108249;1254;73117;-64
2023/05/10 00:15:19;;;;;;;8.50;4.10;;;;;;;21.82;21.66;100966.76;108258;1254;59935;-65
2023/05/10 00:17:46;;;;;;;8.50;4.50;;;;;;;22.04;21.30;100965.33;108325;1253;61072;-66
2023/05/10 00:20:13;;;;;;;6.50;3.80;;;;;;;22.08;21.26;100963.86;108353;1253;74781;-66
2023/05/10 00:22:40;;;;;;;8.60;4.00;;;;;;;22.04;21.61;100963.45;108355;1254;69785;-65
2023/05/10 00:25:08;;;;;;;6.30;3.50;;;;;;;22.06;21.45;100965.08;108330;1252;71798;-65
2023/05/10 00:27:35;;;;;;;6.50;3.90;;;;;;;22.22;21.52;100964.10;108298;1254;60321;-66
2023/05/10 00:30:02;;;;;;;8.00;4.70;;;;;;;22.26;21.43;100960.26;108297;1252;60422;-68
2023/05/10 00:32:29;;;;;;;8.70;3.80;;;;;;;22.04;21.45;100962.89;108293;1252;73457;-67
2023/05/10 00:34:56;;;;;;;9.30;4.40;;;;;;;21.56;22.08;100961.06;108323;1256;70646;-68
2023/05/10 00:37:22;;;;;;;6.90;4.00;;;;;;;21.54;22.04;100964.31;108226;1252;73308;-65
2023/05/10 00:39:49;;;;;;;8.70;4.40;;;;;;;21.75;22.00;100964.42;108197;1253;60368;-65
2023/05/10 00:42:16;;;;;;;11.30;4.40;;;;;;;21.91;21.86;100958.81;108240;1253;61411;-65
2023/05/10 00:44:43;;;;;;;6.90;3.90;;;;;;;21.81;21.73;100960.61;108238;1252;74911;-65
2023/05/10 00:47:11;;;;;;;13.40;4.80;;;;;;;21.79;21.93;100961.12;108227;1254;71639;-66
2023/05/10 00:49:38;;;;;;;9.30;4.30;;;;;;;21.47;22.06;100962.58;108228;1253;73393;-66
2023/05/10 00:52:05;;;;;;;10.10;4.20;;;;;;;21.71;21.87;100959.71;108270;1252;60246;-65
2023/05/10 00:54:32;;;;;;;7.60;4.40;;;;;;;22.03;21.46;100959.93;108097;1254;61243;-65
2023/05/10 00:56:59;;;;;;;9.80;4.30;;;;;;;22.28;21.06;100958.50;108135;1252;249375;-65
2023/05/10 01:00:25;;;;;;;8.60;4.00;;;;;;;18.54;24.89;100968.39;104865;1292;600037;-65
2023/05/10 01:02:53;;;;;;;8.70;4.20;;;;;;;20.47;23.04;100963.58;107224;1267;61844;-64
2023/05/10 01:05:20;;;;;;;10.10;4.70;;;;;;;20.82;22.58;100965.05;107211;1267;60996;-66
2023/05/10 01:07:48;;;;;;;8.10;4.40;;;;;;;20.96;22.31;100966.45;107234;1267;73256;-66
2023/05/10 01:10:14;;;;;;;8.90;4.70;;;;;;;21.10;22.30;100965.83;107485;1261;71172;-68
2023/05/10 01:12:43;;;;;;;10.80;4.60;;;;;;;21.30;22.09;100968.22;107605;1261;74638;-67
2023/05/10 01:15:10;;;;;;;10.20;4.60;;;;;;;21.50;21.94;100965.64;107646;1260;330363;-65
2023/05/10 01:17:38;;;;;;;7.80;4.30;;;;;;;21.37;21.78;100964.36;107626;1257;62749;-65
2023/05/10 01:20:08;;;;;;;10.70;4.30;;;;;;;21.33;21.84;100960.86;107822;1257;72126;-64
2023/05/10 01:22:42;;;;;;;8.00;3.90;;;;;;;21.54;21.76;100959.08;107760;1256;72375;-63
2023/05/10 01:25:33;;;;;;;12.00;4.50;;;;;;;21.52;21.72;100959.05;107853;1258;72098;-65
2023/05/10 01:28:47;;;;;;;8.60;4.20;;;;;;;21.55;21.64;100961.00;107783;1262;59786;-66
2023/05/10 01:31:48;;;;;;;10.00;4.30;;;;;;;21.50;21.72;100958.32;107680;1258;62238;-65
2023/05/10 01:34:16;;;;;;;;;;;;;;;21.86;21.53;100959.33;107742;1257;72734;-66
2023/05/10 01:36:59;;;;;;;7.60;4.10;;;;;;;21.85;21.24;100955.83;107552;1257;72690;-64
2023/05/10 01:39:31;;;;;;;10.20;4.20;;;;;;;21.89;21.27;100953.39;107756;1257;72639;-65
2023/05/10 01:42:08;;;;;;;12.10;4.60;;;;;;;21.88;21.32;100954.18;107698;1260;60406;-65
2023/05/10 01:44:41;;;;;;;8.70;4.00;;;;;;;21.87;21.30;100949.76;107760;1257;62029;-65
2023/05/10 01:47:24;;;;;;;14.00;4.50;;;;;;;22.03;21.41;100952.25;107774;1257;75316;-66
2023/05/10 01:49:53;;;;;;;9.50;4.50;;;;;;;22.39;20.92;100949.42;107722;1257;70346;-66
2023/05/10 01:52:24;;;;;;;12.80;4.60;;;;;;;22.53;20.84;100950.02;107737;1262;73550;-65
2023/05/10 01:54:55;;;;;;;7.90;4.20;;;;;;;22.59;20.78;100947.77;107744;1257;59760;-66
2023/05/10 01:57:23;;;;;;;10.30;4.40;;;;;;;22.55;20.70;100947.58;107732;1257;60683;-67
2023/05/10 01:59:50;;;;;;;10.00;4.40;;;;;;;22.40;20.89;100944.70;107728;1258;74405;-63
2023/05/10 02:02:20;;;;;;;10.60;4.30;;;;;;;22.47;21.03;100944.77;108186;1254;71761;-66
2023/05/10 02:04:47;;;;;;;9.00;4.50;;;;;;;22.29;21.05;100945.18;108116;1254;71375;-66
2023/05/10 02:07:14;;;;;;;10.30;4.40;;;;;;;22.60;20.84;100943.58;107985;1253;60165;-65
2023/05/10 02:09:44;;;;;;;7.60;4.10;;;;;;;22.60;20.74;100943.99;107922;1254;62227;-64
2023/05/10 02:12:12;;;;;;;7.50;4.20;;;;;;;22.45;20.89;100947.42;108093;1253;74720;-65
2023/05/10 02:14:39;;;;;;;12.00;4.30;;;;;;;22.29;21.05;100948.06;107982;1254;72138;-66
2023/05/10 02:17:07;;;;;;;11.90;4.60;;;;;;;21.95;21.29;100944.52;107944;1254;74786;-67
2023/05/10 02:19:34;;;;;;;9.70;4.70;;;;;;;22.05;21.40;100947.41;108083;1254;60760;-65
2023/05/10 02:22:01;;;;;;;10.80;4.10;;;;;;;22.50;21.00;100947.08;107961;1254;62436;-63
2023/05/10 02:24:28;;;;;;;7.40;4.30;;;;;;;22.52;20.87;100948.69;107927;1254;75447;-66
2023/05/10 02:26:58;;;;;;;7.60;4.30;;;;;;;22.37;21.12;100950.34;108108;1253;72420;-64
2023/05/10 02:29:25;;;;;;;7.90;4.60;;;;;;;22.26;21.12;100951.61;107958;1254;72086;-65
2023/05/10 02:31:53;;;;;;;7.00;4.20;;;;;;;22.33;21.13;100953.27;108120;1254;59917;-66
2023/05/10 02:34:22;;;;;;;9.90;4.40;;;;;;;22.36;21.03;100952.00;108075;1253;62594;-68
2023/05/10 02:36:48;;;;;;;7.50;4.40;;;;;;;22.41;21.07;100950.20;108369;1253;73445;-66
2023/05/10 02:39:15;;;;;;;7.60;4.30;;;;;;;22.28;21.15;100948.84;108001;1260;69900;-65
2023/05/10 02:41:42;;;;;;;7.20;3.90;;;;;;;22.21;21.30;100950.94;107850;1254;74004;-65
2023/05/10 02:44:11;;;;;;;9.30;4.20;;;;;;;22.33;21.05;100943.06;108019;1253;60530;-66
2023/05/10 02:46:39;;;;;;;12.20;4.20;;;;;;;22.13;21.43;100944.17;108023;1253;62500;-65
2023/05/10 02:49:06;;;;;;;9.40;4.10;;;;;;;21.82;21.66;100949.77;108060;1253;75367;-66
2023/05/10 02:51:36;;;;;;;5.20;3.70;;;;;;;22.02;21.59;100948.53;108123;1254;70383;-66
2023/05/10 02:54:07;;;;;;;4.90;3.60;;;;;;;22.22;21.31;100952.30;108075;1253;74916;-65
2023/05/10 02:56:36;;;;;;;7.70;4.00;;;;;;;22.38;21.11;100952.36;108062;1254;60230;-63
2023/05/10 02:59:02;;;;;;;5.80;3.80;;;;;;;22.44;21.11;100947.86;108169;1254;59429;-63
2023/05/10 03:01:29;;;;;;;6.00;3.90;;;;;;;22.49;21.18;100945.89;107930;1254;74931;-66
2023/05/10 03:03:57;;;;;;;5.90;3.30;;;;;;;22.56;21.04;100947.31;108257;1253;72423;-68
2023/05/10 03:06:24;;;;;;;8.40;3.90;;;;;;;22.91;20.94;100949.31;107997;1254;74894;-65
2023/05/10 03:08:50;;;;;;;7.90;4.10;;;;;;;22.77;20.88;100951.46;107991;1254;59963;-67
2023/05/10 03:11:23;;;;;;;9.50;4.30;;;;;;;22.35;21.22;100950.98;108101;1254;60906;-65
2023/05/10 03:14:05;;;;;;;8.80;4.00;;;;;;;21.94;21.65;100953.95;108045;1253;74949;-65
2023/05/10 03:16:39;;;;;;;8.40;3.80;;;;;;;21.98;21.67;100955.41;108099;1253;70032;-66
2023/05/10 03:19:50;;;;;;;10.70;4.00;;;;;;;22.27;21.51;100954.95;107988;1260;74106;-65
2023/05/10 03:22:22;;;;;;;6.90;3.90;;;;;;;22.20;21.56;100959.61;107916;1253;61406;-66
2023/05/10 03:24:50;;;;;;;8.90;4.10;;;;;;;22.73;21.01;100960.52;108139;1254;62438;-66
2023/05/10 03:27:16;;;;;;;6.40;3.90;;;;;;;23.55;20.36;100957.84;108111;1253;73512;-66
2023/05/10 03:29:46;;;;;;;5.00;3.60;;;;;;;23.85;19.98;100957.52;107901;1253;70899;-66
2023/05/10 03:32:13;;;;;;;7.70;3.40;;;;;;;24.24;19.55;100953.09;108090;1254;73807;-65
2023/05/10 03:34:43;;;;;;;7.30;3.70;;;;;;;24.56;19.56;100952.52;108053;1254;59509;-67
2023/05/10 03:37:10;;;;;;;7.30;4.00;;;;;;;24.37;19.45;100952.42;108116;1252;61511;-63
2023/05/10 03:39:37;;;;;;;6.70;4.00;;;;;;;24.46;19.42;100956.90;108118;1253;73972;-66
2023/05/10 03:42:05;;;;;;;5.90;3.70;;;;;;;24.56;19.31;100955.34;108165;1254;71120;-66
2023/05/10 03:44:33;;;;;;;6.30;3.80;;;;;;;25.15;18.80;100956.69;107844;1253;73883;-65
2023/05/10 03:46:59;;;;;;;6.80;3.60;;;;;;;25.48;18.64;100959.44;108124;1257;61154;-67
2023/05/10 03:49:27;;;;;;;9.70;3.80;;;;;;;25.68;18.44;100958.02;108345;1252;62157;-65
2023/05/10 03:51:54;;;;;;;8.40;4.60;;;;;;;25.93;18.13;100957.38;108180;1254;74123;-66
2023/05/10 03:54:22;;;;;;;8.40;4.00;;;;;;;25.83;18.31;100959.64;108082;1254;72808;-66
2023/05/10 03:56:49;;;;;;;6.10;3.20;;;;;;;25.85;18.12;100960.78;108112;1254;74793;-66
2023/05/10 03:59:16;;;;;;;10.40;4.00;;;;;;;25.73;18.32;100959.83;108106;1253;62445;-67
2023/05/10 04:01:44;;;;;;;7.50;3.60;;;;;;;25.53;18.34;100957.97;108191;1253;59871;-65
2023/05/10 04:04:13;;;;;;;10.70;3.60;;;;;;;25.47;18.40;100959.02;108122;1254;75157;-67
2023/05/10 04:06:40;;;;;;;7.00;3.60;;;;;;;25.46;18.41;100960.52;108064;1253;72274;-68
2023/05/10 04:09:08;;;;;;;9.10;3.80;;;;;;;25.53;18.43;100964.23;108024;1253;74641;-66
2023/05/10 04:11:35;;;;;;;9.90;3.70;;;;;;;25.80;18.28;100961.02;108215;1252;61189;-66
2023/05/10 04:14:02;;;;;;;9.50;3.80;;;;;;;25.75;18.26;100962.31;108076;1254;61500;-66
2023/05/10 04:16:29;;;;;;;9.60;3.50;;;;;;;25.58;18.33;100966.27;108167;1253;72996;-66
2023/05/10 04:18:57;;;;;;;8.30;3.40;;;;;;;25.82;18.32;100965.27;108202;1253;71784;-66
2023/05/10 04:21:25;;;;;;;6.50;3.90;;;;;;;26.13;17.84;100967.96;108194;1253;74373;-64
2023/05/10 04:23:52;;;;;;;11.20;3.90;;;;;;;26.52;17.54;100970.04;108112;1253;60993;-64
2023/05/10 04:26:21;;;;;;;6.20;3.50;;;;;;;27.19;17.32;100966.39;108158;1253;61321;-66
2023/05/10 04:28:48;;;;;;;6.80;3.50;;;;;;;28.01;16.63;100961.29;108173;1253;74484;-66
2023/05/10 04:31:15;;;;;;;7.10;3.80;;;;;;;28.44;16.40;100958.96;108130;1252;72611;-65
2023/05/10 04:33:44;;;;;;;5.20;3.20;;;;;;;28.37;16.15;100959.02;108123;1253;72406;-67
2023/05/10 04:36:13;;;;;;;9.20;3.60;;;;;;;28.68;16.14;100959.58;108115;1254;61433;-66
2023/05/10 04:38:40;;;;;;;7.00;3.90;;;;;;;29.25;15.32;100963.38;108171;1253;60146;-67
2023/05/10 04:41:08;;;;;;;7.10;3.60;;;;;;;29.40;15.38;100967.04;108087;1253;73875;-67
2023/05/10 04:43:36;;;;;;;11.20;3.90;;;;;;;29.00;15.35;100970.67;108099;1253;70807;-66
2023/05/10 04:46:05;;;;;;;7.20;3.80;;;;;;;28.69;15.68;100974.51;108066;1253;71389;-66
2023/05/10 04:48:33;;;;;;;14.60;3.60;;;;;;;28.03;15.92;100973.42;108090;1253;59686;-67
2023/05/10 04:51:03;;;;;;;10.30;3.80;;;;;;;27.79;16.33;100975.91;108072;1253;61164;-65
2023/05/10 04:53:31;;;;;;;5.90;4.00;;;;;;;28.15;15.98;100975.79;108071;1253;75364;-66
2023/05/10 04:55:58;;;;;;;11.70;4.20;;;;;;;28.32;16.09;100972.02;108059;1253;70726;-66
2023/05/10 04:58:24;;;;;;;15.20;4.30;;;;;;;28.43;15.87;100973.45;108028;1253;74537;-66
2023/05/10 05:00:51;;;;;;;8.60;3.90;;;;;;;28.21;15.90;100976.27;108182;1253;61445;-66
2023/05/10 05:03:18;;;;;;;14.40;4.40;;;;;;;27.96;16.08;100978.59;108083;1253;59857;-67
2023/05/10 05:05:45;;;;;;;10.60;5.70;;;;;;;27.85;16.16;100978.80;108167;1253;74880;-65
2023/05/10 05:08:13;;;;;;;14.10;5.40;;;;;;;27.27;16.58;100981.34;108152;1252;72270;-66
2023/05/10 05:10:39;;;;;;;15.70;7.60;;;;;;;27.07;16.83;100982.83;108170;1254;74908;-65
2023/05/10 05:13:06;;;;;;;18.50;5.20;;;;;;;26.97;16.78;100983.42;108166;1253;61638;-66
2023/05/10 05:15:33;;;;;;;17.60;6.30;;;;;;;26.97;16.93;100981.80;108137;1253;62431;-67
2023/05/10 05:18:00;;;;;;;22.90;5.60;;;;;;;26.86;16.94;100980.62;108187;1253;73948;-67
2023/05/10 05:20:27;;;;;;;20.70;6.20;;;;;;;26.48;17.48;100984.09;108090;1253;70617;-67
2023/05/10 05:22:54;;;;;;;25.30;6.80;;;;;;;27.05;17.29;100978.86;108140;1253;73545;-68
2023/05/10 05:25:21;;;;;;;15.00;6.00;;;;;;;27.46;16.82;100977.18;108040;1253;61916;-67
2023/05/10 05:27:48;;;;;;;21.50;6.00;;;;;;;27.73;16.78;100975.52;108060;1253;60206;-67
2023/05/10 05:30:15;;;;;;;17.40;4.90;;;;;;;27.91;16.57;100975.10;108128;1253;74452;-67
2023/05/10 05:32:43;;;;;;;13.70;4.60;;;;;;;27.89;16.36;100974.75;108115;1253;71816;-68
2023/05/10 05:35:10;;;;;;;15.20;5.40;;;;;;;28.33;16.27;100973.65;108135;1253;72675;-69
2023/05/10 05:37:37;;;;;;;21.20;4.30;;;;;;;29.01;15.91;100972.91;108074;1252;60499;-68
2023/05/10 05:40:04;;;;;;;12.40;4.50;;;;;;;29.57;15.35;100970.45;108137;1253;61199;-67
2023/05/10 05:42:31;;;;;;;17.00;4.90;;;;;;;30.14;14.92;100973.06;108112;1253;73750;-66
2023/05/10 05:45:01;;;;;;;15.70;4.80;;;;;;;30.02;14.98;100969.31;108154;1253;70168;-68
2023/05/10 05:47:28;;;;;;;11.30;4.50;;;;;;;29.89;14.64;100967.05;108138;1254;74609;-66
2023/05/10 05:49:55;;;;;;;9.40;4.80;;;;;;;29.99;14.83;100969.44;108141;1253;61091;-66
2023/05/10 05:52:21;;;;;;;13.00;4.60;;;;;;;30.08;14.78;100971.91;108205;1253;61494;-67
2023/05/10 05:54:48;;;;;;;9.40;4.50;;;;;;;30.54;14.51;100967.05;108150;1252;74433;-66
2023/05/10 05:57:17;;;;;;;15.80;5.10;;;;;;;30.74;14.25;100968.35;108157;1253;72535;-68
2023/05/10 05:59:44;;;;;;;16.00;5.40;;;;;;;30.56;14.57;100967.53;108075;1257;74058;-67
2023/05/10 06:02:11;;;;;;;13.00;5.00;;;;;;;29.98;14.82;100976.95;108048;1253;60536;-67
2023/05/10 06:04:37;;;;;;;14.40;4.80;;;;;;;29.37;15.21;100979.50;108110;1253;60389;-69
2023/05/10 06:07:06;;;;;;;12.10;5.20;;;;;;;28.91;15.84;100977.20;108102;1252;75915;-68
2023/05/10 06:09:32;;;;;;;11.00;5.40;;;;;;;28.52;15.97;100977.59;108072;1253;71045;-68
2023/05/10 06:11:59;;;;;;;15.90;5.30;;;;;;;28.67;16.09;100977.08;108146;1253;74684;-68
2023/05/10 06:14:27;;;;;;;11.90;4.90;;;;;;;28.60;16.20;100975.02;108120;1252;61159;-67
2023/05/10 06:16:54;;;;;;;12.50;5.20;;;;;;;27.89;16.69;100975.71;108053;1253;61304;-67
2023/05/10 06:19:21;;;;;;;10.90;4.80;;;;;;;28.09;16.57;100975.90;108121;1253;74714;-65
2023/05/10 06:21:48;;;;;;;10.10;4.10;;;;;;;28.95;16.35;100972.61;108238;1253;72705;-66
2023/05/10 06:24:16;;;;;;;14.80;5.00;;;;;;;29.12;15.92;100972.00;108074;1253;75278;-67
2023/05/10 06:26:43;;;;;;;17.20;5.20;;;;;;;28.99;15.81;100971.65;108054;1253;62327;-67
2023/05/10 06:29:10;;;;;;;9.20;4.80;;;;;;;28.76;16.12;100970.21;108058;1253;60297;-67
2023/05/10 06:31:37;;;;;;;11.60;5.20;;;;;;;28.47;15.95;100969.59;108139;1253;75644;-68
2023/05/10 06:34:04;;;;;;;9.90;5.60;;;;;;;28.09;16.34;100971.20;108093;1253;71238;-68
2023/05/10 06:36:31;;;;;;;13.10;4.70;;;;;;;28.37;16.45;100971.13;108033;1253;75057;-68
2023/05/10 06:38:57;;;;;;;9.70;4.20;;;;;;;28.85;16.39;100969.81;108149;1252;62451;-66
2023/05/10 06:41:25;;;;;;;17.20;4.90;;;;;;;29.08;16.44;100972.32;108098;1253;62225;-66
2023/05/10 06:43:52;;;;;;;10.70;4.70;;;;;;;29.29;16.37;100974.20;108169;1253;74970;-67
2023/05/10 06:46:19;;;;;;;11.30;5.00;;;;;;;29.01;16.14;100971.45;108088;1253;70570;-67
2023/05/10 06:48:46;;;;;;;8.30;4.80;;;;;;;29.49;15.60;100976.45;108191;1255;74548;-68
2023/05/10 06:51:13;;;;;;;14.60;4.90;;;;;;;29.98;15.59;100971.33;108107;1255;60506;-65
2023/05/10 06:53:39;;;;;;;9.30;4.90;;;;;;;30.14;15.26;100977.10;108093;1253;61947;-66
2023/05/10 06:56:06;;;;;;;12.00;4.80;;;;;;;29.94;15.36;100979.08;108080;1253;76452;-63
2023/05/10 06:58:33;;;;;;;8.80;4.70;;;;;;;30.54;15.37;100976.58;108185;1253;72115;-67
2023/05/10 07:01:06;;;;;;;19.90;5.40;;;;;;;31.15;15.04;100973.19;108040;1253;74016;-66
2023/05/10 07:03:33;;;;;;;9.10;4.70;;;;;;;31.91;14.17;100975.63;108011;1253;62457;-68
2023/05/10 07:06:04;;;;;;;12.50;4.50;;;;;;;32.02;13.71;100977.75;108218;1253;60467;-67
2023/05/10 07:08:31;;;;;;;9.60;3.90;;;;;;;32.01;13.87;100977.86;108128;1253;74701;-67
2023/05/10 07:11:06;;;;;;;10.60;4.80;;;;;;;32.26;13.50;100978.48;108149;1252;72622;-68
2023/05/10 07:13:33;;;;;;;11.70;4.40;;;;;;;32.67;13.36;100978.21;108080;1253;75233;-67
2023/05/10 07:16:01;;;;;;;13.50;4.10;;;;;;;33.01;13.11;100975.13;108066;1254;62527;-67
2023/05/10 07:18:28;;;;;;;11.90;4.20;;;;;;;33.24;12.95;100979.98;108079;1253;62341;-68
2023/05/10 07:20:56;;;;;;;9.50;4.40;;;;;;;33.47;12.96;100973.77;108140;1253;75873;-69
2023/05/10 07:23:23;;;;;;;8.10;4.10;;;;;;;32.99;13.11;100976.29;108065;1253;72378;-68
2023/05/10 07:25:51;;;;;;;9.70;4.50;;;;;;;33.28;13.14;100971.62;108106;1253;74930;-68
2023/05/10 07:28:18;;;;;;;11.60;3.90;;;;;;;33.71;13.10;100977.42;108067;1253;62551;-69
2023/05/10 07:30:45;;;;;;;8.70;3.70;;;;;;;33.97;12.87;100976.80;108058;1253;60418;-67
2023/05/10 07:33:13;;;;;;;8.60;4.20;;;;;;;34.10;12.56;100978.20;108092;1253;76160;-67
2023/05/10 07:35:40;;;;;;;9.20;3.50;;;;;;;34.01;12.75;100977.79;108131;1252;72991;-67
2023/05/10 07:38:07;;;;;;;7.00;3.80;;;;;;;34.02;12.79;100979.34;108036;1253;72516;-67
2023/05/10 07:40:34;;;;;;;10.60;3.50;;;;;;;33.96;12.68;100983.15;108298;1253;60890;-66
2023/05/10 07:43:02;;;;;;;11.10;5.00;;;;;;;33.67;12.78;100983.23;108138;1252;61304;-66
2023/05/10 07:45:29;;;;;;;5.50;3.40;;;;;;;33.17;12.92;100982.91;108312;1253;73742;-67
2023/05/10 07:47:56;;;;;;;11.30;3.90;;;;;;;32.73;13.16;100982.95;108195;1253;71456;-68
2023/05/10 07:50:22;;;;;;;6.90;3.20;;;;;;;32.54;13.53;100979.10;108141;1253;75417;-68
2023/05/10 07:52:49;;;;;;;6.90;3.20;;;;;;;32.24;13.57;100979.75;108316;1252;61043;-69
2023/05/10 07:55:18;;;;;;;6.70;3.60;;;;;;;32.07;13.79;100977.45;108237;1253;61040;-67
2023/05/10 07:57:44;;;;;;;7.70;3.70;;;;;;;32.19;13.95;100976.91;108064;1253;75492;-68
2023/05/10 08:00:13;;;;;;;6.30;3.60;;;;;;;32.10;13.80;100976.75;108136;1253;71032;-69
2023/05/10 08:02:40;;;;;;;9.70;3.70;;;;;;;32.14;13.75;100975.68;108170;1253;75029;-67
2023/05/10 08:05:07;;;;;;;9.10;3.20;;;;;;;32.23;13.61;100973.77;108141;1253;60441;-65
2023/05/10 08:07:35;;;;;;;6.40;2.90;;;;;;;31.81;13.70;100967.79;108150;1252;62172;-69
2023/05/10 08:10:02;;;;;;;9.10;3.10;;;;;;;31.77;13.40;100973.54;108161;1253;75899;-66
2023/05/10 08:12:30;;;;;;;8.80;3.00;;;;;;;32.45;12.99;100966.15;108139;1253;70914;-68
2023/05/10 08:14:57;;;;;;;8.10;3.40;;;;;;;32.32;12.90;100965.74;108103;1253;74835;-68
2023/05/10 08:17:24;;;;;;;6.50;2.80;;;;;;;32.00;12.95;100966.14;108134;1253;60204;-67
2023/05/10 08:19:51;;;;;;;8.70;3.10;;;;;;;32.69;12.43;100959.27;108097;1252;61977;-67
2023/05/10 08:22:18;;;;;;;9.30;3.00;;;;;;;32.45;12.20;100959.73;108102;1252;74876;-67
2023/05/10 08:24:45;;;;;;;6.70;2.10;;;;;;;32.31;12.27;100953.71;108231;1253;71262;-64
2023/05/10 08:27:11;;;;;;;9.30;2.50;;;;;;;32.50;12.56;100952.39;108144;1254;72574;-67
2023/05/10 08:29:38;;;;;;;11.80;2.90;;;;;;;32.51;12.51;100951.99;108095;1253;61068;-67
2023/05/10 08:32:16;;;;;;;8.40;3.00;;;;;;;32.38;12.68;100952.36;108170;1252;62639;-68
2023/05/10 08:34:42;;;;;;;7.30;2.50;;;;;;;33.18;12.25;100951.41;108116;1253;75750;-69
2023/05/10 08:37:12;;;;;;;48.00;30.50;;;;;;;33.37;11.77;100958.16;108064;1253;72401;-65
2023/05/10 08:39:40;;;;;;;18.80;9.30;;;;;;;33.57;11.39;100959.30;108090;1253;74776;-68
2023/05/10 08:42:06;;;;;;;7.00;2.60;;;;;;;33.44;11.39;100965.64;108082;1253;62760;-68
2023/05/10 08:44:35;;;;;;;6.40;2.60;;;;;;;32.95;11.57;100956.73;108179;1253;61591;-68
2023/05/10 08:47:04;;;;;;;5.60;2.40;;;;;;;33.37;11.66;100953.97;108196;1256;74152;-68
2023/05/10 08:49:31;;;;;;;5.70;2.40;;;;;;;33.65;11.67;100950.52;108176;1253;71192;-67
2023/05/10 08:51:58;;;;;;;8.40;2.70;;;;;;;33.96;11.43;100957.66;108225;1253;74168;-67
2023/05/10 08:54:24;;;;;;;8.20;2.20;;;;;;;33.57;11.33;100965.73;108234;1253;60389;-68
2023/05/10 08:56:51;;;;;;;9.00;4.20;;;;;;;33.37;11.37;100960.52;108102;1253;61696;-67
2023/05/10 08:59:18;;;;;;;14.30;5.40;;;;;;;32.94;11.63;100955.05;108173;1253;75825;-66
2023/05/10 09:01:45;;;;;;;7.00;3.00;;;;;;;32.98;11.69;100947.83;108340;1254;72756;-68
2023/05/10 09:04:12;;;;;;;6.40;3.50;;;;;;;33.16;11.40;100949.20;108081;1253;73586;-67
2023/05/10 09:06:39;;;;;;;9.90;2.60;;;;;;;32.91;11.37;100950.16;108061;1253;60994;-69
2023/05/10 09:09:06;;;;;;;7.80;3.40;;;;;;;33.12;11.35;100949.32;108186;1253;62792;-69
2023/05/10 09:11:33;;;;;;;6.80;3.20;;;;;;;33.47;11.25;100944.00;108138;1253;74849;-68
2023/05/10 09:13:59;;;;;;;4.60;2.50;;;;;;;33.35;11.34;100944.29;108054;1253;70152;-68
2023/05/10 09:16:26;;;;;;;4.90;2.60;;;;;;;33.18;11.36;100941.80;108123;1257;74691;-68
2023/05/10 09:18:53;;;;;;;9.20;5.00;;;;;;;33.42;11.18;100944.36;108034;1253;62447;-68
2023/05/10 09:21:20;;;;;;;5.90;2.80;;;;;;;33.57;11.29;100943.49;108090;1252;62610;-67
2023/05/10 09:23:49;;;;;;;10.40;2.70;;;;;;;33.59;11.13;100938.91;108113;1254;76458;-67
2023/05/10 09:26:17;;;;;;;7.50;3.30;;;;;;;33.05;11.59;100930.30;108164;1252;70331;-69
2023/05/10 09:28:50;;;;;;;9.90;2.80;;;;;;;33.40;11.73;100924.41;108035;1253;75009;-68
2023/05/10 09:31:17;;;;;;;9.20;5.10;;;;;;;34.10;11.21;100923.81;108086;1252;61005;-69
2023/05/10 09:33:45;;;;;;;12.10;4.60;;;;;;;34.01;11.33;100930.48;108129;1253;62784;-68
2023/05/10 09:36:13;;;;;;;5.60;2.90;;;;;;;33.90;11.23;100926.15;108197;1253;76125;-67
2023/05/10 09:38:51;;;;;;;8.20;2.80;;;;;;;33.93;11.25;100925.02;108138;1253;71967;-68
2023/05/10 09:41:19;;;;;;;6.70;2.80;;;;;;;33.78;11.42;100927.16;108128;1253;73645;-68
2023/05/10 09:43:47;;;;;;;13.90;3.10;;;;;;;33.73;11.82;100928.14;108230;1252;62581;-68
2023/05/10 09:46:16;;;;;;;6.00;3.00;;;;;;;33.56;11.75;100934.29;108167;1253;62162;-68
2023/05/10 09:48:45;;;;;;;10.40;3.90;;;;;;;33.66;11.84;100929.14;108188;1253;74125;-67
2023/05/10 09:51:24;;;;;;;10.50;3.40;;;;;;;33.33;12.27;100931.11;108148;1252;72868;-68
2023/05/10 09:54:14;;;;;;;10.40;3.00;;;;;;;32.83;12.67;100929.06;108232;1253;75269;-67
2023/05/10 09:56:41;;;;;;;7.00;3.10;;;;;;;32.30;12.90;100932.74;108194;1253;60438;-67
2023/05/10 09:59:11;;;;;;;7.20;3.00;;;;;;;31.94;13.25;100936.64;108203;1252;62249;-68
2023/05/10 10:01:38;;;;;;;12.30;3.50;;;;;;;31.80;13.42;100935.65;108122;1251;74298;-68
2023/05/10 10:04:07;;;;;;;11.60;3.40;;;;;;;31.71;13.53;100932.52;108104;1253;72922;-68
2023/05/10 10:06:40;;;;;;;12.70;3.60;;;;;;;31.61;13.62;100934.83;108150;1252;71965;-66
2023/05/10 10:09:06;;;;;;;9.90;3.00;;;;;;;31.49;13.55;100932.92;108137;1253;62930;-67
2023/05/10 10:11:37;;;;;;;6.20;2.80;;;;;;;31.75;13.38;100936.15;108103;1253;61060;-67
2023/05/10 10:14:05;;;;;;;7.90;2.60;;;;;;;31.32;13.46;100936.48;108251;1253;74789;-68
2023/05/10 10:16:32;;;;;;;6.10;3.00;;;;;;;31.27;13.87;100933.81;108179;1252;70608;-68
2023/05/10 10:18:58;;;;;;;7.80;2.80;;;;;;;31.41;13.47;100930.41;108129;1253;72866;-68
2023/05/10 10:21:26;;;;;;;5.80;3.10;;;;;;;31.63;13.69;100927.23;108091;1253;60829;-68
2023/05/10 10:23:53;;;;;;;5.40;2.70;;;;;;;31.59;13.57;100924.56;108119;1252;60662;-67
2023/05/10 10:26:20;;;;;;;7.30;2.80;;;;;;;31.44;13.52;100923.59;108213;1253;73775;-66
2023/05/10 10:29:08;;;;;;;4.50;2.40;;;;;;;31.84;13.04;100916.69;107962;1253;69915;-67
2023/05/10 10:31:58;;;;;;;5.60;2.10;;;;;;;31.98;12.70;100918.52;108213;1254;74981;-66
2023/05/10 10:34:29;;;;;;;5.80;2.30;;;;;;;32.12;12.53;100915.27;108089;1253;62394;-67
2023/05/10 10:36:56;;;;;;;8.50;2.50;;;;;;;32.33;12.30;100914.23;108368;1253;60186;-68
2023/05/10 10:39:26;;;;;;;5.00;2.60;;;;;;;32.30;12.12;100913.18;108186;1253;76162;-68
2023/05/10 10:41:54;;;;;;;5.00;2.60;;;;;;;32.27;11.87;100911.72;108106;1257;70822;-66
2023/05/10 10:44:37;;;;;;;8.30;2.80;;;;;;;32.22;11.83;100909.56;108156;1253;74801;-68
2023/05/10 10:47:24;;;;;;;6.50;2.10;;;;;;;32.42;12.19;100905.75;108099;1252;60491;-67
2023/05/10 10:50:16;;;;;;;6.30;2.60;;;;;;;32.22;12.10;100904.98;108126;1252;60820;-68
2023/05/10 10:52:43;;;;;;;4.20;2.20;;;;;;;32.29;11.85;100901.24;108124;1253;74762;-68
2023/05/10 10:55:24;;;;;;;3.10;2.00;;;;;;;32.31;11.85;100902.46;108154;1257;72213;-66
2023/05/10 10:58:02;;;;;;;2.40;1.90;;;;;;;32.79;11.59;100899.40;108108;1257;74957;-68
2023/05/10 11:00:30;;;;;;;5.20;2.50;;;;;;;32.83;11.58;100893.30;108157;1256;59153;-68
2023/05/10 11:03:08;;;;;;;6.80;2.80;;;;;;;32.55;11.69;100893.52;108126;1252;61306;-68
2023/05/10 11:05:42;;;;;;;4.70;2.60;;;;;;;31.82;11.76;100890.20;108083;1253;74842;-67
2023/05/10 11:08:10;;;;;;;13.80;2.80;;;;;;;31.82;11.96;100884.77;108095;1253;72439;-67
2023/05/10 11:10:37;;;;;;;5.70;3.00;;;;;;;32.10;12.22;100882.09;108076;1253;74846;-68
2023/05/10 11:13:10;;;;;;;10.30;2.60;;;;;;;32.41;11.92;100881.67;108112;1253;60309;-67
2023/05/10 11:15:40;;;;;;;4.60;2.50;;;;;;;32.60;11.73;100881.27;108131;1253;59571;-68
2023/05/10 11:18:27;;;;;;;6.10;2.60;;;;;;;32.84;11.67;100878.84;108075;1257;74688;-68
2023/05/10 11:20:59;;;;;;;4.60;2.40;;;;;;;33.01;11.54;100879.42;108123;1253;72572;-68
2023/05/10 11:23:31;;;;;;;7.40;2.50;;;;;;;33.27;11.60;100880.49;108078;1253;74908;-68